Time;durP1;ratioP1;P1;durP2;ratioP2;P2;SDS_P1;SDS_P2;PMS_P1;PMS_P2;Temp;Humidity;BMP_temperature;BMP_pressure;BME280_temperature;BME280_humidity;BME280_pressure;Samples;Min_cycle;Max_cycle;Signal;HPM_P1;HPM_P2
2022/09/23 00:01:13;;;;;;;;;;;10.50;99.90;;;;;;5115816;28;19925;-73
2022/09/23 00:03:44;;;;;;;;;;;10.40;99.90;;;;;;5122349;27;19915;-74
2022/09/23 00:06:11;;;;;;;;;;;10.40;99.90;;;;;;5115310;27;19927;-73
2022/09/23 00:08:36;;;;;;;;;;;10.40;99.90;;;;;;5134219;27;19965;-73
2022/09/23 00:11:03;;;;;;;;;;;10.40;99.90;;;;;;5134360;27;19907;-73
2022/09/23 00:13:29;;;;;;;;;;;10.40;99.90;;;;;;5131255;28;19948;-73
2022/09/23 00:15:54;;;;;;;;;;;10.30;99.90;;;;;;5104804;28;19995;-73
2022/09/23 00:18:20;;;;;;;;;;;10.30;99.90;;;;;;5108389;28;19912;-73
2022/09/23 00:20:46;;;;;;;;;;;10.40;99.90;;;;;;5115263;27;20043;-73
2022/09/23 00:23:11;;;;;;;;;;;10.30;99.90;;;;;;5128850;27;20323;-73
2022/09/23 00:25:37;;;;;;;;;;;10.30;99.90;;;;;;5118516;27;20001;-73
2022/09/23 00:28:02;;;;;;;;;;;10.30;99.90;;;;;;5116418;27;20317;-73
2022/09/23 00:30:28;;;;;;;;;;;10.30;99.90;;;;;;5138885;27;20010;-74
2022/09/23 00:32:55;;;;;;;;;;;10.30;99.90;;;;;;5137147;27;19915;-73
2022/09/23 00:35:21;;;;;;;;;;;10.20;99.90;;;;;;5137597;27;19921;-73
2022/09/23 00:37:47;;;;;;;;;;;10.20;99.90;;;;;;5120397;27;20014;-73
2022/09/23 00:40:12;;;;;;;;;;;10.20;99.90;;;;;;5138459;27;19907;-73
2022/09/23 00:42:44;;;;;;;;;;;10.20;99.90;;;;;;5109953;28;20298;-73
2022/09/23 00:45:10;;;;;;;;;;;10.20;99.90;;;;;;5135076;27;19995;-73
2022/09/23 00:47:47;;;;;;;;;;;10.20;99.90;;;;;;5119636;27;19968;-74
2022/09/23 00:50:25;;;;;;;;;;;10.20;99.90;;;;;;5135084;27;19919;-73
2022/09/23 00:52:52;;;;;;;;;;;10.30;99.90;;;;;;5137131;27;19917;-74
2022/09/23 00:55:21;;;;;;;;;;;10.30;99.90;;;;;;5130513;27;19912;-74
2022/09/23 00:57:46;;;;;;;;;;;10.20;99.90;;;;;;5137711;27;19998;-73
2022/09/23 01:00:12;;;;;;;;;;;10.20;99.90;;;;;;5149524;27;20361;-74
2022/09/23 01:02:38;;;;;;;;;;;10.20;99.90;;;;;;5137467;27;19919;-74
2022/09/23 01:05:04;;;;;;;;;;;10.20;99.90;;;;;;5138895;27;20248;-74
2022/09/23 01:07:30;;;;;;;;;;;10.20;99.90;;;;;;5136914;27;19915;-73
2022/09/23 01:09:57;;;;;;;;;;;10.20;99.90;;;;;;5138713;27;19964;-74
2022/09/23 01:12:29;;;;;;;;;;;10.20;99.90;;;;;;5136741;27;20437;-74
2022/09/23 01:15:14;;;;;;;;;;;10.20;99.90;;;;;;5137214;27;19935;-73
2022/09/23 01:17:52;;;;;;;;;;;10.20;99.90;;;;;;5122784;27;19915;-73
2022/09/23 01:20:26;;;;;;;;;;;10.20;99.90;;;;;;5112273;27;19920;-74
2022/09/23 01:22:52;;;;;;;;;;;10.10;99.90;;;;;;5119979;27;20299;-74
2022/09/23 01:25:36;;;;;;;;;;;10.10;99.90;;;;;;5137636;27;19931;-74
2022/09/23 01:28:17;;;;;;;;;;;10.00;99.90;;;;;;5133762;27;19912;-74
2022/09/23 01:30:48;;;;;;;;;;;9.90;99.90;;;;;;5135941;27;19912;-74
2022/09/23 01:33:14;;;;;;;;;;;9.80;99.90;;;;;;5118812;27;19918;-74
2022/09/23 01:35:43;;;;;;;;;;;9.80;99.90;;;;;;5116432;27;19915;-74
2022/09/23 01:38:27;;;;;;;;;;;9.80;99.90;;;;;;5136655;27;19957;-73
2022/09/23 01:40:58;;;;;;;;;;;9.80;99.90;;;;;;5119696;27;19907;-73
2022/09/23 01:43:30;;;;;;;;;;;9.80;99.90;;;;;;5136092;27;19919;-74
2022/09/23 01:45:58;;;;;;;;;;;9.90;99.90;;;;;;5117516;27;20511;-74
2022/09/23 01:48:27;;;;;;;;;;;9.90;99.90;;;;;;5100520;27;20283;-73
2022/09/23 01:51:08;;;;;;;;;;;10.00;99.90;;;;;;5133478;27;19998;-73
2022/09/23 01:53:50;;;;;;;;;;;10.00;99.90;;;;;;5136161;27;19911;-74
2022/09/23 01:56:27;;;;;;;;;;;10.00;99.90;;;;;;5134783;27;19916;-74
2022/09/23 01:58:53;;;;;;;;;;;10.00;99.90;;;;;;5135374;27;20248;-73
2022/09/23 02:01:21;;;;;;;;;;;9.90;99.90;;;;;;5131142;27;19937;-73
2022/09/23 02:03:51;;;;;;;;;;;9.90;99.90;;;;;;5135183;27;19915;-74
2022/09/23 02:06:22;;;;;;;;;;;9.80;99.90;;;;;;5108017;27;19919;-73
2022/09/23 02:08:51;;;;;;;;;;;9.70;99.90;;;;;;5110513;27;19911;-74
2022/09/23 02:11:17;;;;;;;;;;;9.70;99.90;;;;;;5117509;27;19961;-74
2022/09/23 02:13:42;;;;;;;;;;;9.70;99.90;;;;;;5127519;27;19908;-74
2022/09/23 02:16:12;;;;;;;;;;;9.70;99.90;;;;;;5105626;27;19912;-73
2022/09/23 02:19:05;;;;;;;;;;;9.60;99.90;;;;;;5126931;27;19947;-73
2022/09/23 02:21:38;;;;;;;;;;;9.60;99.90;;;;;;5119581;27;19915;-74
2022/09/23 02:24:07;;;;;;;;;;;9.60;99.90;;;;;;5134285;27;19960;-75
2022/09/23 02:26:35;;;;;;;;;;;9.60;99.90;;;;;;5114066;27;19997;-75
2022/09/23 02:29:00;;;;;;;;;;;9.60;99.90;;;;;;5113607;27;19912;-74
2022/09/23 02:31:29;;;;;;;;;;;9.70;99.90;;;;;;5124333;27;20414;-74
2022/09/23 02:34:07;;;;;;;;;;;9.70;99.90;;;;;;5108291;27;19918;-74
2022/09/23 02:36:43;;;;;;;;;;;9.70;99.90;;;;;;5123907;27;20234;-74
2022/09/23 02:39:11;;;;;;;;;;;9.60;99.90;;;;;;5128914;27;19911;-74
2022/09/23 02:41:43;;;;;;;;;;;9.70;99.90;;;;;;5131081;27;19930;-74
2022/09/23 02:44:11;;;;;;;;;;;9.60;99.90;;;;;;5131927;27;19934;-73
2022/09/23 02:46:37;;;;;;;;;;;9.60;99.90;;;;;;5130411;27;19959;-74
2022/09/23 02:49:16;;;;;;;;;;;9.60;99.90;;;;;;5130550;27;20006;-74
2022/09/23 02:51:42;;;;;;;;;;;9.50;99.90;;;;;;5125434;27;19993;-73
2022/09/23 02:54:09;;;;;;;;;;;9.50;99.90;;;;;;5108372;27;19923;-74
2022/09/23 02:56:36;;;;;;;;;;;9.50;99.90;;;;;;5123688;27;20295;-73
2022/09/23 02:59:02;;;;;;;;;;;9.50;99.90;;;;;;5108542;27;19911;-74
2022/09/23 03:01:30;;;;;;;;;;;9.50;99.90;;;;;;5127726;27;19916;-74
2022/09/23 03:04:05;;;;;;;;;;;9.50;99.90;;;;;;5108962;27;19971;-74
2022/09/23 03:06:34;;;;;;;;;;;9.60;99.90;;;;;;5127901;27;19915;-73
2022/09/23 03:09:07;;;;;;;;;;;9.60;99.90;;;;;;5110387;27;19911;-74
2022/09/23 03:11:36;;;;;;;;;;;9.70;99.90;;;;;;5127351;27;20362;-74
2022/09/23 03:14:06;;;;;;;;;;;9.80;99.90;;;;;;5130570;27;20316;-74
2022/09/23 03:16:31;;;;;;;;;;;9.80;99.90;;;;;;5131596;27;19922;-74
2022/09/23 03:18:57;;;;;;;;;;;9.80;99.90;;;;;;5110649;27;19915;-74
2022/09/23 03:21:34;;;;;;;;;;;9.80;99.90;;;;;;5115642;27;19911;-73
2022/09/23 03:24:01;;;;;;;;;;;9.80;99.90;;;;;;5114504;27;19985;-73
2022/09/23 03:26:30;;;;;;;;;;;9.80;99.90;;;;;;5099014;27;19920;-74
2022/09/23 03:28:56;;;;;;;;;;;9.80;99.90;;;;;;5128318;27;20002;-73
2022/09/23 03:31:21;;;;;;;;;;;9.80;99.90;;;;;;5123169;27;19920;-73
2022/09/23 03:33:50;;;;;;;;;;;9.80;99.90;;;;;;5119337;27;20214;-73
2022/09/23 03:39:05;;;;;;;;;;;9.70;99.90;;;;;;5115031;27;19926;-74
2022/09/23 03:41:40;;;;;;;;;;;9.80;99.90;;;;;;5117464;27;20191;-74
2022/09/23 03:44:08;;;;;;;;;;;9.70;99.90;;;;;;5119036;27;19922;-74
2022/09/23 03:46:34;;;;;;;;;;;9.70;99.90;;;;;;5135755;28;19911;-74
2022/09/23 03:49:09;;;;;;;;;;;9.70;99.90;;;;;;5131881;27;20217;-74
2022/09/23 03:51:34;;;;;;;;;;;9.70;99.90;;;;;;5134928;27;20019;-73
2022/09/23 03:54:00;;;;;;;;;;;9.70;99.90;;;;;;5114024;27;20002;-74
2022/09/23 03:56:25;;;;;;;;;;;9.70;99.90;;;;;;5114430;28;20010;-73
2022/09/23 03:58:51;;;;;;;;;;;9.70;99.90;;;;;;5119105;27;19999;-74
2022/09/23 04:01:16;;;;;;;;;;;9.70;99.90;;;;;;5139497;27;19911;-75
2022/09/23 04:03:42;;;;;;;;;;;9.70;99.90;;;;;;5138669;27;19911;-74
2022/09/23 04:06:08;;;;;;;;;;;9.80;99.90;;;;;;5136748;27;19994;-74
2022/09/23 04:08:33;;;;;;;;;;;9.80;99.90;;;;;;5120455;27;19962;-74
2022/09/23 04:11:00;;;;;;;;;;;9.80;99.90;;;;;;5119417;27;20258;-74
2022/09/23 04:13:26;;;;;;;;;;;9.90;99.90;;;;;;5138168;27;19988;-74
2022/09/23 04:15:51;;;;;;;;;;;9.90;99.90;;;;;;5110136;28;19915;-75
2022/09/23 04:18:17;;;;;;;;;;;9.90;99.90;;;;;;5117108;27;19919;-74
2022/09/23 04:20:43;;;;;;;;;;;10.00;99.90;;;;;;5119860;27;19911;-74
2022/09/23 04:23:08;;;;;;;;;;;10.00;99.90;;;;;;5128363;27;19919;-74
2022/09/23 04:25:34;;;;;;;;;;;10.00;99.90;;;;;;5138970;27;20279;-73
2022/09/23 04:28:00;;;;;;;;;;;10.10;99.90;;;;;;5138178;27;19918;-74
2022/09/23 04:30:25;;;;;;;;;;;10.10;99.90;;;;;;5130710;27;19919;-74
2022/09/23 04:32:51;;;;;;;;;;;10.10;99.90;;;;;;5154664;27;19916;-74
2022/09/23 04:35:17;;;;;;;;;;;10.00;99.90;;;;;;5137843;27;19997;-75
2022/09/23 04:37:42;;;;;;;;;;;10.00;99.90;;;;;;5137982;27;19919;-74
2022/09/23 04:40:08;;;;;;;;;;;10.00;99.90;;;;;;5137494;27;19926;-74
2022/09/23 04:42:34;;;;;;;;;;;9.90;99.90;;;;;;5120291;27;19916;-74
2022/09/23 04:44:59;;;;;;;;;;;9.90;99.90;;;;;;5137750;27;19999;-74
2022/09/23 04:47:25;;;;;;;;;;;9.90;99.90;;;;;;5135151;27;20006;-74
2022/09/23 04:49:51;;;;;;;;;;;10.00;99.90;;;;;;5137814;27;20347;-74
2022/09/23 04:52:16;;;;;;;;;;;9.90;99.90;;;;;;5138119;27;20259;-74
2022/09/23 04:54:42;;;;;;;;;;;10.00;99.90;;;;;;5117745;27;20020;-74
2022/09/23 04:57:09;;;;;;;;;;;10.00;99.90;;;;;;5133645;27;20010;-73
2022/09/23 04:59:36;;;;;;;;;;;9.90;99.90;;;;;;5133073;27;19919;-74
2022/09/23 05:02:01;;;;;;;;;;;9.90;99.90;;;;;;5116280;27;19915;-74
2022/09/23 05:04:27;;;;;;;;;;;10.00;99.90;;;;;;5115150;27;19916;-74
2022/09/23 05:06:52;;;;;;;;;;;10.00;99.90;;;;;;5105747;27;19919;-74
2022/09/23 05:09:18;;;;;;;;;;;9.90;99.90;;;;;;5099430;28;20002;-73
2022/09/23 05:11:44;;;;;;;;;;;9.90;99.90;;;;;;5125020;27;19919;-74
2022/09/23 05:14:09;;;;;;;;;;;10.00;99.90;;;;;;5129044;27;19911;-74
2022/09/23 05:16:35;;;;;;;;;;;10.00;99.90;;;;;;5101372;28;20317;-74
2022/09/23 05:19:02;;;;;;;;;;;10.00;99.90;;;;;;5103057;27;19959;-74
2022/09/23 05:21:27;;;;;;;;;;;10.00;99.90;;;;;;5099406;27;20286;-74
2022/09/23 05:23:54;;;;;;;;;;;10.00;99.90;;;;;;5130451;27;19986;-74
2022/09/23 05:26:20;;;;;;;;;;;10.00;99.90;;;;;;5127960;27;19923;-74
2022/09/23 05:28:46;;;;;;;;;;;10.10;99.90;;;;;;5119756;27;19946;-74
2022/09/23 05:31:16;;;;;;;;;;;10.10;99.90;;;;;;5127612;27;19955;-75
2022/09/23 05:33:43;;;;;;;;;;;10.20;99.90;;;;;;5105126;28;19912;-74
2022/09/23 05:36:09;;;;;;;;;;;10.20;99.90;;;;;;5109377;27;19912;-73
2022/09/23 05:38:34;;;;;;;;;;;10.30;99.90;;;;;;5130367;27;19960;-74
2022/09/23 05:41:02;;;;;;;;;;;10.30;99.90;;;;;;5134466;27;20303;-74
2022/09/23 05:43:27;;;;;;;;;;;10.40;99.90;;;;;;5132676;27;20210;-74
2022/09/23 05:46:03;;;;;;;;;;;10.40;99.90;;;;;;5132291;27;19930;-74
2022/09/23 05:48:30;;;;;;;;;;;10.40;99.90;;;;;;5133115;27;20002;-74
2022/09/23 05:50:55;;;;;;;;;;;10.40;99.90;;;;;;5110777;27;19923;-73
2022/09/23 05:53:21;;;;;;;;;;;10.40;99.90;;;;;;5109389;27;19927;-73
2022/09/23 05:55:47;;;;;;;;;;;10.50;99.90;;;;;;5112222;27;19908;-74
2022/09/23 05:58:12;;;;;;;;;;;10.50;99.90;;;;;;5107095;27;19920;-74
2022/09/23 06:00:39;;;;;;;;;;;10.50;99.90;;;;;;5097370;28;19912;-73
2022/09/23 06:03:05;;;;;;;;;;;10.50;99.90;;;;;;5097758;28;20192;-73
2022/09/23 06:05:31;;;;;;;;;;;10.50;99.90;;;;;;5104598;27;19923;-73
2022/09/23 06:07:57;;;;;;;;;;;10.60;99.90;;;;;;5095678;28;19912;-74
2022/09/23 06:10:22;;;;;;;;;;;10.60;99.90;;;;;;5107385;27;19912;-74
2022/09/23 06:12:48;;;;;;;;;;;10.60;99.90;;;;;;5107742;27;19938;-73
2022/09/23 06:15:14;;;;;;;;;;;10.60;99.90;;;;;;5113480;28;21741;-73
2022/09/23 06:17:40;;;;;;;;;;;10.60;99.90;;;;;;5108370;28;19999;-74
2022/09/23 06:20:06;;;;;;;;;;;10.70;99.90;;;;;;5114462;28;20217;-74
2022/09/23 06:22:32;;;;;;;;;;;10.70;99.90;;;;;;5112510;28;19915;-73
2022/09/23 06:24:57;;;;;;;;;;;10.70;99.90;;;;;;5103562;28;19908;-74
2022/09/23 06:27:23;;;;;;;;;;;10.70;99.90;;;;;;5103779;28;19916;-74
2022/09/23 06:29:50;;;;;;;;;;;10.80;99.90;;;;;;5108813;28;19952;-73
2022/09/23 06:32:15;;;;;;;;;;;10.80;99.90;;;;;;5094482;27;20492;-74
2022/09/23 06:34:44;;;;;;;;;;;10.80;99.90;;;;;;5095689;28;19930;-73
2022/09/23 06:37:10;;;;;;;;;;;10.80;99.90;;;;;;5108244;28;19914;-74
2022/09/23 06:39:35;;;;;;;;;;;10.90;99.90;;;;;;5104750;28;19931;-74
2022/09/23 06:42:01;;;;;;;;;;;10.90;99.90;;;;;;5099466;28;19908;-74
2022/09/23 06:44:27;;;;;;;;;;;10.90;99.90;;;;;;5130279;27;19919;-73
2022/09/23 06:46:53;;;;;;;;;;;11.00;99.90;;;;;;5105117;28;20226;-74
2022/09/23 06:49:21;;;;;;;;;;;11.00;99.90;;;;;;5104412;28;19908;-74
2022/09/23 06:51:47;;;;;;;;;;;11.00;99.90;;;;;;5122009;27;19919;-73
2022/09/23 06:54:12;;;;;;;;;;;11.10;99.90;;;;;;5118761;27;20303;-74
2022/09/23 06:56:38;;;;;;;;;;;11.10;99.90;;;;;;5133183;27;20213;-74
2022/09/23 06:59:04;;;;;;;;;;;11.20;99.90;;;;;;5128056;27;19911;-73
2022/09/23 07:01:30;;;;;;;;;;;11.30;99.90;;;;;;5112684;27;19921;-73
2022/09/23 07:03:55;;;;;;;;;;;11.40;99.90;;;;;;5134621;27;19998;-74
2022/09/23 07:06:21;;;;;;;;;;;11.50;99.90;;;;;;5132180;27;20271;-74
2022/09/23 07:08:47;;;;;;;;;;;11.50;99.90;;;;;;5131591;27;20242;-73
2022/09/23 07:11:13;;;;;;;;;;;11.60;99.90;;;;;;5109321;27;19912;-74
2022/09/23 07:13:40;;;;;;;;;;;11.70;99.90;;;;;;5116588;27;19915;-74
2022/09/23 07:16:05;;;;;;;;;;;11.70;99.90;;;;;;5112276;27;20655;-74
2022/09/23 07:18:32;;;;;;;;;;;11.80;99.90;;;;;;5128315;27;20063;-74
2022/09/23 07:21:05;;;;;;;;;;;11.90;99.90;;;;;;5125377;27;19943;-74
2022/09/23 07:23:32;;;;;;;;;;;11.90;99.90;;;;;;5124436;27;19960;-74
2022/09/23 07:25:58;;;;;;;;;;;12.00;99.90;;;;;;5107170;27;20267;-74
2022/09/23 07:28:24;;;;;;;;;;;12.10;99.90;;;;;;5124992;27;19916;-75
2022/09/23 07:30:51;;;;;;;;;;;12.10;99.90;;;;;;5126161;27;19912;-74
2022/09/23 07:33:17;;;;;;;;;;;12.20;99.90;;;;;;5132876;27;20010;-75
2022/09/23 07:35:42;;;;;;;;;;;12.30;99.90;;;;;;5114158;28;19908;-74
2022/09/23 07:38:09;;;;;;;;;;;12.50;99.90;;;;;;5108109;28;19916;-74
2022/09/23 07:40:35;;;;;;;;;;;12.60;99.90;;;;;;5112163;27;19918;-74
2022/09/23 07:43:03;;;;;;;;;;;12.70;99.90;;;;;;5132654;27;19912;-74
2022/09/23 07:45:30;;;;;;;;;;;12.80;99.90;;;;;;5132257;27;19998;-74
2022/09/23 07:47:56;;;;;;;;;;;12.90;99.90;;;;;;5130335;27;19922;-73
2022/09/23 07:50:22;;;;;;;;;;;13.00;99.90;;;;;;5112881;27;19923;-74
2022/09/23 07:52:51;;;;;;;;;;;13.20;99.90;;;;;;5115827;27;19911;-74
2022/09/23 07:55:17;;;;;;;;;;;13.30;99.90;;;;;;5111877;28;20371;-75
2022/09/23 07:57:42;;;;;;;;;;;13.50;99.90;;;;;;5120568;27;19912;-74
2022/09/23 08:00:08;;;;;;;;;;;13.70;99.90;;;;;;5104336;27;19916;-75
2022/09/23 08:02:34;;;;;;;;;;;13.90;99.90;;;;;;5120643;27;19912;-74
2022/09/23 08:05:00;;;;;;;;;;;14.10;99.90;;;;;;5120644;27;20010;-74
2022/09/23 08:07:25;;;;;;;;;;;14.30;99.90;;;;;;5123608;27;19930;-74
2022/09/23 08:09:51;;;;;;;;;;;14.50;99.90;;;;;;5122741;27;19912;-74
2022/09/23 08:12:17;;;;;;;;;;;14.70;99.90;;;;;;5108628;28;20361;-73
2022/09/23 08:14:42;;;;;;;;;;;15.00;99.90;;;;;;5104894;28;19961;-75
2022/09/23 08:17:08;;;;;;;;;;;15.10;99.90;;;;;;5123287;28;19943;-75
2022/09/23 08:19:34;;;;;;;;;;;15.30;99.90;;;;;;5118835;27;19912;-74
2022/09/23 08:21:59;;;;;;;;;;;15.50;99.90;;;;;;5103267;28;19916;-74
2022/09/23 08:24:25;;;;;;;;;;;15.50;99.90;;;;;;5114680;28;19960;-75
2022/09/23 08:26:52;;;;;;;;;;;15.60;99.90;;;;;;5097290;28;20298;-74
2022/09/23 08:29:21;;;;;;;;;;;15.60;99.90;;;;;;5132014;27;20307;-74
2022/09/23 08:31:48;;;;;;;;;;;15.70;99.90;;;;;;5119953;27;19916;-74
2022/09/23 08:34:14;;;;;;;;;;;15.70;99.90;;;;;;5106081;27;19918;-74
2022/09/23 08:36:39;;;;;;;;;;;15.70;99.90;;;;;;5125062;28;19908;-75
2022/09/23 08:39:05;;;;;;;;;;;15.90;99.90;;;;;;5125839;27;19923;-74
2022/09/23 08:41:37;;;;;;;;;;;16.00;99.90;;;;;;5117311;28;19972;-74
2022/09/23 08:44:05;;;;;;;;;;;16.20;99.90;;;;;;5118762;27;20207;-76
2022/09/23 08:46:35;;;;;;;;;;;16.20;99.90;;;;;;5108519;27;20317;-75
2022/09/23 08:49:00;;;;;;;;;;;16.30;99.90;;;;;;5124948;27;19907;-75
2022/09/23 08:51:34;;;;;;;;;;;16.30;99.90;;;;;;5126797;27;19950;-74
2022/09/23 08:54:00;;;;;;;;;;;16.40;99.90;;;;;;5113473;27;19994;-76
2022/09/23 08:56:27;;;;;;;;;;;16.30;99.90;;;;;;5126339;27;20272;-74
2022/09/23 08:59:11;;;;;;;;;;;16.40;99.90;;;;;;5120284;27;20322;-75
2022/09/23 09:01:44;;;;;;;;;;;16.50;99.90;;;;;;5124586;27;20292;-75
2022/09/23 09:04:22;;;;;;;;;;;16.90;99.90;;;;;;5119553;27;20825;-75
2022/09/23 09:06:57;;;;;;;;;;;17.30;99.90;;;;;;5129710;27;19972;-75
2022/09/23 09:09:25;;;;;;;;;;;17.70;99.90;;;;;;5121712;27;19920;-75
2022/09/23 09:11:54;;;;;;;;;;;17.90;99.90;;;;;;5129777;27;19911;-75
2022/09/23 09:14:29;;;;;;;;;;;18.10;99.90;;;;;;5107743;28;19916;-76
2022/09/23 09:16:57;;;;;;;;;;;18.00;99.90;;;;;;5121581;27;19915;-76
2022/09/23 09:19:41;;;;;;;;;;;17.60;99.90;;;;;;5118802;27;20010;-75
2022/09/23 09:22:10;;;;;;;;;;;17.30;99.90;;;;;;5118741;27;19942;-74
2022/09/23 09:24:36;;;;;;;;;;;17.00;99.90;;;;;;5128959;27;19923;-74
2022/09/23 09:27:10;;;;;;;;;;;16.80;99.90;;;;;;5119194;27;19915;-75
2022/09/23 09:29:37;;;;;;;;;;;16.60;99.90;;;;;;5102490;27;20310;-74
2022/09/23 09:32:18;;;;;;;;;;;16.50;99.90;;;;;;5116546;27;20298;-75
2022/09/23 09:34:52;;;;;;;;;;;16.40;99.90;;;;;;5121357;27;19966;-74
2022/09/23 09:37:22;;;;;;;;;;;16.20;99.90;;;;;;5123258;27;20223;-75
2022/09/23 09:39:47;;;;;;;;;;;16.20;99.90;;;;;;5112398;27;20340;-74
2022/09/23 09:42:19;;;;;;;;;;;16.00;99.90;;;;;;5112613;27;19928;-74
2022/09/23 09:44:49;;;;;;;;;;;16.00;99.90;;;;;;5132390;27;19907;-74
2022/09/23 09:47:35;;;;;;;;;;;15.90;99.90;;;;;;5098536;28;20199;-74
2022/09/23 09:50:24;;;;;;;;;;;15.80;99.90;;;;;;5084384;27;19920;-74
2022/09/23 09:52:55;;;;;;;;;;;15.80;99.90;;;;;;5090111;27;19955;-73
2022/09/23 09:55:27;;;;;;;;;;;15.80;99.90;;;;;;5111122;27;19907;-74
2022/09/23 09:58:03;;;;;;;;;;;15.80;99.90;;;;;;5113135;27;20322;-74
2022/09/23 10:00:29;;;;;;;;;;;15.80;99.90;;;;;;5099004;28;19908;-74
2022/09/23 10:02:58;;;;;;;;;;;15.70;99.90;;;;;;5109191;27;20249;-74
2022/09/23 10:05:27;;;;;;;;;;;15.80;99.90;;;;;;5114997;27;19933;-75
2022/09/23 10:07:53;;;;;;;;;;;15.80;99.90;;;;;;5102751;27;19994;-74
2022/09/23 10:10:20;;;;;;;;;;;15.90;99.90;;;;;;5132401;27;19956;-74
2022/09/23 10:12:47;;;;;;;;;;;15.90;99.90;;;;;;5116910;27;19915;-75
2022/09/23 10:15:25;;;;;;;;;;;15.90;99.90;;;;;;5115749;27;20002;-75
2022/09/23 10:17:51;;;;;;;;;;;16.00;99.90;;;;;;5127453;27;19915;-74
2022/09/23 10:20:16;;;;;;;;;;;16.00;99.90;;;;;;5118392;27;19953;-74
2022/09/23 10:22:42;;;;;;;;;;;16.00;99.90;;;;;;5119705;27;19961;-74
2022/09/23 10:25:14;;;;;;;;;;;16.00;99.90;;;;;;5121054;27;19912;-74
2022/09/23 10:27:40;;;;;;;;;;;16.10;99.90;;;;;;5126603;27;19923;-73
2022/09/23 10:30:12;;;;;;;;;;;16.10;99.90;;;;;;5102389;28;19934;-74
2022/09/23 10:32:43;;;;;;;;;;;16.10;99.90;;;;;;5126854;27;19923;-75
2022/09/23 10:35:10;;;;;;;;;;;16.10;99.90;;;;;;5127036;27;19960;-74
2022/09/23 10:37:37;;;;;;;;;;;16.20;99.90;;;;;;5133387;27;20008;-73
2022/09/23 10:48:36;;;;;;;;;;;16.40;99.90;;;;;;5130519;27;19931;-73
2022/09/23 10:51:24;;;;;;;;;;;16.40;99.90;;;;;;5132981;27;19924;-73
2022/09/23 10:54:08;;;;;;;;;;;16.40;99.90;;;;;;5109464;28;19908;-73
2022/09/23 10:56:41;;;;;;;;;;;16.50;99.90;;;;;;5135106;27;19915;-73
2022/09/23 10:59:35;;;;;;;;;;;16.50;99.90;;;;;;5128741;27;20287;-73
2022/09/23 11:02:15;;;;;;;;;;;16.50;99.90;;;;;;5129317;27;19950;-73
2022/09/23 11:04:51;;;;;;;;;;;16.50;99.90;;;;;;5130807;27;20331;-73
2022/09/23 11:07:17;;;;;;;;;;;16.50;99.90;;;;;;5129846;27;19919;-73
2022/09/23 11:09:51;;;;;;;;;;;16.60;99.90;;;;;;5130205;27;19907;-73
2022/09/23 11:12:35;;;;;;;;;;;16.60;99.90;;;;;;5123309;27;19915;-73
2022/09/23 11:15:19;;;;;;;;;;;16.60;99.90;;;;;;5130485;27;19915;-73
2022/09/23 11:18:09;;;;;;;;;;;16.60;99.90;;;;;;5118555;27;19919;-72
2022/09/23 11:20:34;;;;;;;;;;;16.60;99.90;;;;;;5114081;27;19915;-73
2022/09/23 11:23:19;;;;;;;;;;;16.60;99.90;;;;;;5118053;27;19915;-73
2022/09/23 11:26:04;;;;;;;;;;;16.60;99.90;;;;;;5133355;27;19911;-73
2022/09/23 11:28:36;;;;;;;;;;;16.70;99.90;;;;;;5086239;27;20255;-73
2022/09/23 11:31:05;;;;;;;;;;;16.50;99.90;;;;;;5128966;27;19912;-73
2022/09/23 11:33:53;;;;;;;;;;;16.60;99.90;;;;;;5122105;27;19955;-73
2022/09/23 11:36:23;;;;;;;;;;;16.60;99.90;;;;;;5114597;28;19950;-73
2022/09/23 11:38:50;;;;;;;;;;;16.60;99.90;;;;;;5117211;27;19927;-73
2022/09/23 11:41:30;;;;;;;;;;;16.60;99.90;;;;;;5102309;27;19922;-73
2022/09/23 11:44:04;;;;;;;;;;;16.70;99.90;;;;;;5111078;27;20268;-73
2022/09/23 11:46:41;;;;;;;;;;;16.60;99.90;;;;;;5121490;27;19951;-73
2022/09/23 11:49:14;;;;;;;;;;;16.70;99.90;;;;;;5126174;27;19923;-72
2022/09/23 11:51:58;;;;;;;;;;;16.70;99.90;;;;;;5098559;27;20271;-73
2022/09/23 11:54:33;;;;;;;;;;;16.80;99.90;;;;;;5127994;27;20226;-73
2022/09/23 11:57:02;;;;;;;;;;;16.90;99.90;;;;;;5130403;27;19907;-73
2022/09/23 11:59:33;;;;;;;;;;;16.90;99.90;;;;;;5131483;27;20105;-73
2022/09/23 12:02:17;;;;;;;;;;;17.00;99.90;;;;;;5133843;27;19914;-71
2022/09/23 12:04:46;;;;;;;;;;;17.10;99.90;;;;;;5126709;27;19922;-73
2022/09/23 12:07:15;;;;;;;;;;;17.20;99.90;;;;;;5122496;27;19925;-72
2022/09/23 12:09:59;;;;;;;;;;;17.20;99.90;;;;;;5123773;27;19926;-73
2022/09/23 12:12:37;;;;;;;;;;;17.30;99.90;;;;;;5119986;27;20222;-72
2022/09/23 12:15:08;;;;;;;;;;;17.40;99.90;;;;;;5113108;28;19912;-73
2022/09/23 12:17:43;;;;;;;;;;;17.50;99.90;;;;;;5105899;28;19911;-73
2022/09/23 12:20:18;;;;;;;;;;;17.50;99.90;;;;;;5108151;27;20195;-72
2022/09/23 12:23:02;;;;;;;;;;;17.60;99.90;;;;;;5134368;27;19919;-72
2022/09/23 12:25:45;;;;;;;;;;;17.60;99.90;;;;;;5130446;27;19951;-73
2022/09/23 12:28:23;;;;;;;;;;;17.60;99.90;;;;;;5131813;27;20204;-72
2022/09/23 12:30:50;;;;;;;;;;;17.60;99.90;;;;;;5112679;27;19912;-72
2022/09/23 12:33:26;;;;;;;;;;;17.60;99.90;;;;;;5135156;27;19988;-71
2022/09/23 12:35:53;;;;;;;;;;;17.60;99.90;;;;;;5133351;27;19918;-72
2022/09/23 12:38:31;;;;;;;;;;;17.70;99.90;;;;;;5128400;27;19972;-71
2022/09/23 12:40:58;;;;;;;;;;;17.70;99.90;;;;;;5132350;27;20187;-73
2022/09/23 12:43:28;;;;;;;;;;;17.80;99.90;;;;;;5118546;27;19923;-72
2022/09/23 12:45:54;;;;;;;;;;;17.80;99.90;;;;;;5130880;27;19916;-72
2022/09/23 12:48:25;;;;;;;;;;;17.80;99.90;;;;;;5129231;27;19915;-72
2022/09/23 12:50:51;;;;;;;;;;;17.90;99.90;;;;;;5123288;27;20010;-73
2022/09/23 12:53:29;;;;;;;;;;;17.90;99.90;;;;;;5122266;27;20262;-72
2022/09/23 12:55:54;;;;;;;;;;;17.80;99.90;;;;;;5125395;27;19907;-73
2022/09/23 12:58:36;;;;;;;;;;;17.80;99.90;;;;;;5118590;27;19926;-72
2022/09/23 13:01:05;;;;;;;;;;;17.70;99.90;;;;;;5118067;27;19919;-72
2022/09/23 13:09:01;;;;;;;;;;;17.50;99.90;;;;;;5121792;27;19999;-72
2022/09/23 13:11:28;;;;;;;;;;;17.50;99.90;;;;;;5110871;27;19911;-72
2022/09/23 13:13:55;;;;;;;;;;;17.50;99.90;;;;;;5116205;28;20315;-73
2022/09/23 13:16:40;;;;;;;;;;;17.40;99.90;;;;;;5115897;28;19908;-72
2022/09/23 13:19:25;;;;;;;;;;;17.40;99.90;;;;;;5113363;27;20333;-73
2022/09/23 13:21:51;;;;;;;;;;;17.40;99.90;;;;;;5111546;27;19911;-73
2022/09/23 13:24:19;;;;;;;;;;;17.40;99.90;;;;;;5109268;27;19934;-73
2022/09/23 13:26:46;;;;;;;;;;;17.50;99.90;;;;;;5127466;27;19980;-72
2022/09/23 13:29:16;;;;;;;;;;;17.60;99.90;;;;;;5117195;27;20317;-72
2022/09/23 13:31:42;;;;;;;;;;;17.80;99.90;;;;;;5114709;28;20209;-72
2022/09/23 13:34:11;;;;;;;;;;;18.00;99.90;;;;;;5128968;27;20211;-73
2022/09/23 13:36:44;;;;;;;;;;;18.30;99.90;;;;;;5124228;27;19998;-72
2022/09/23 13:39:21;;;;;;;;;;;18.50;99.90;;;;;;5117541;27;19957;-72
2022/09/23 13:41:47;;;;;;;;;;;18.70;99.90;;;;;;5120312;27;19915;-73
2022/09/23 13:44:15;;;;;;;;;;;18.70;99.90;;;;;;5101120;27;19912;-71
2022/09/23 13:46:44;;;;;;;;;;;18.70;99.90;;;;;;5131102;27;19960;-72
2022/09/23 13:49:29;;;;;;;;;;;18.70;99.90;;;;;;5120533;27;19930;-72
2022/09/23 13:51:55;;;;;;;;;;;18.70;99.90;;;;;;5116199;28;19960;-72
2022/09/23 13:54:35;;;;;;;;;;;18.70;99.90;;;;;;5130375;27;20263;-74
2022/09/23 13:57:01;;;;;;;;;;;18.70;99.90;;;;;;5116266;28;19956;-71
2022/09/23 13:59:29;;;;;;;;;;;18.70;99.90;;;;;;5126910;27;19918;-72
2022/09/23 14:02:05;;;;;;;;;;;18.70;99.90;;;;;;5114825;27;19966;-72
2022/09/23 14:04:31;;;;;;;;;;;18.70;99.90;;;;;;5133101;27;19970;-73
2022/09/23 14:06:56;;;;;;;;;;;18.70;99.90;;;;;;5122177;27;19955;-72
2022/09/23 14:09:23;;;;;;;;;;;18.60;99.90;;;;;;5133617;27;20294;-73
2022/09/23 14:11:50;;;;;;;;;;;18.60;99.90;;;;;;5110917;27;19998;-72
2022/09/23 14:14:16;;;;;;;;;;;18.50;99.90;;;;;;5127874;27;20007;-72
2022/09/23 14:16:42;;;;;;;;;;;18.50;99.90;;;;;;5127741;27;19990;-72
2022/09/23 14:19:12;;;;;;;;;;;18.40;99.90;;;;;;5106594;27;20325;-72
2022/09/23 14:21:38;;;;;;;;;;;18.40;99.90;;;;;;5121227;27;20261;-71
2022/09/23 14:24:10;;;;;;;;;;;18.30;99.90;;;;;;5116548;27;20191;-71
2022/09/23 14:26:36;;;;;;;;;;;18.30;99.90;;;;;;5115599;28;19921;-72
2022/09/23 14:29:01;;;;;;;;;;;18.20;99.90;;;;;;5130299;27;19911;-72
2022/09/23 14:31:27;;;;;;;;;;;18.20;99.90;;;;;;5125489;27;20044;-74
2022/09/23 14:33:53;;;;;;;;;;;18.20;99.90;;;;;;5120523;27;19941;-72
2022/09/23 14:39:10;;;;;;;;;;;18.10;99.90;;;;;;5128192;27;19918;-71
2022/09/23 14:41:37;;;;;;;;;;;18.00;99.90;;;;;;5127350;27;20011;-72
2022/09/23 14:44:03;;;;;;;;;;;18.00;99.90;;;;;;5127214;27;19911;-72
2022/09/23 14:46:31;;;;;;;;;;;18.00;99.90;;;;;;5125914;27;19916;-73
2022/09/23 14:48:59;;;;;;;;;;;18.00;99.90;;;;;;5125366;27;20263;-72
2022/09/23 14:51:34;;;;;;;;;;;18.00;99.90;;;;;;5111713;27;20325;-72